sensor_id;sensor_type;location;lat;lon;timestamp;P1;durP1;ratioP1;P2;durP2;ratioP2
51686;SDS011;37774;52.192;4.584;2023-03-01T00:00:54;11.75;;;7.00;;
51686;SDS011;37774;52.192;4.584;2023-03-01T00:03:26;14.95;;;7.40;;
51686;SDS011;37774;52.192;4.584;2023-03-01T00:05:53;18.80;;;8.27;;
51686;SDS011;37774;52.192;4.584;2023-03-01T00:08:20;14.43;;;6.72;;
51686;SDS011;37774;52.192;4.584;2023-03-01T00:10:47;12.65;;;6.45;;
51686;SDS011;37774;52.192;4.584;2023-03-01T00:13:15;16.58;;;7.53;;
51686;SDS011;37774;52.192;4.584;2023-03-01T00:15:42;21.58;;;8.68;;
51686;SDS011;37774;52.192;4.584;2023-03-01T00:18:09;14.68;;;6.05;;
51686;SDS011;37774;52.192;4.584;2023-03-01T00:20:36;12.82;;;7.25;;
51686;SDS011;37774;52.192;4.584;2023-03-01T00:23:03;16.25;;;8.00;;
51686;SDS011;37774;52.192;4.584;2023-03-01T00:25:30;17.05;;;6.75;;
51686;SDS011;37774;52.192;4.584;2023-03-01T00:27:56;20.33;;;8.25;;
51686;SDS011;37774;52.192;4.584;2023-03-01T00:30:25;21.20;;;7.45;;
51686;SDS011;37774;52.192;4.584;2023-03-01T00:32:52;23.77;;;9.57;;
51686;SDS011;37774;52.192;4.584;2023-03-01T00:35:19;12.90;;;6.38;;
51686;SDS011;37774;52.192;4.584;2023-03-01T00:37:45;22.17;;;7.93;;
51686;SDS011;37774;52.192;4.584;2023-03-01T00:40:12;18.80;;;7.22;;
51686;SDS011;37774;52.192;4.584;2023-03-01T00:42:41;18.27;;;8.35;;
51686;SDS011;37774;52.192;4.584;2023-03-01T00:45:08;18.52;;;8.63;;
51686;SDS011;37774;52.192;4.584;2023-03-01T00:47:37;22.38;;;8.65;;
51686;SDS011;37774;52.192;4.584;2023-03-01T00:50:04;20.55;;;9.48;;
51686;SDS011;37774;52.192;4.584;2023-03-01T00:52:32;19.35;;;8.60;;
51686;SDS011;37774;52.192;4.584;2023-03-01T00:54:59;17.45;;;8.07;;
51686;SDS011;37774;52.192;4.584;2023-03-01T00:57:26;20.65;;;8.85;;
51686;SDS011;37774;52.192;4.584;2023-03-01T00:59:52;21.85;;;8.75;;
51686;SDS011;37774;52.192;4.584;2023-03-01T01:02:19;18.45;;;8.82;;
51686;SDS011;37774;52.192;4.584;2023-03-01T01:04:47;22.02;;;8.52;;
51686;SDS011;37774;52.192;4.584;2023-03-01T01:07:15;25.65;;;10.02;;
51686;SDS011;37774;52.192;4.584;2023-03-01T01:09:45;24.85;;;9.05;;
51686;SDS011;37774;52.192;4.584;2023-03-01T01:12:12;19.45;;;9.65;;
51686;SDS011;37774;52.192;4.584;2023-03-01T01:14:38;17.33;;;8.35;;
51686;SDS011;37774;52.192;4.584;2023-03-01T01:17:06;20.45;;;9.52;;
51686;SDS011;37774;52.192;4.584;2023-03-01T01:19:33;24.98;;;9.85;;
51686;SDS011;37774;52.192;4.584;2023-03-01T01:22:01;22.95;;;8.38;;
51686;SDS011;37774;52.192;4.584;2023-03-01T01:24:28;20.20;;;10.48;;
51686;SDS011;37774;52.192;4.584;2023-03-01T01:26:55;20.17;;;8.15;;
51686;SDS011;37774;52.192;4.584;2023-03-01T01:29:22;28.65;;;10.95;;
51686;SDS011;37774;52.192;4.584;2023-03-01T01:31:49;20.55;;;8.93;;
51686;SDS011;37774;52.192;4.584;2023-03-01T01:34:18;26.95;;;10.45;;
51686;SDS011;37774;52.192;4.584;2023-03-01T01:36:47;25.35;;;10.68;;
51686;SDS011;37774;52.192;4.584;2023-03-01T01:39:16;26.25;;;10.38;;
51686;SDS011;37774;52.192;4.584;2023-03-01T01:41:43;23.83;;;10.07;;
51686;SDS011;37774;52.192;4.584;2023-03-01T01:44:11;27.00;;;12.15;;
51686;SDS011;37774;52.192;4.584;2023-03-01T01:46:44;25.77;;;12.32;;
51686;SDS011;37774;52.192;4.584;2023-03-01T01:49:24;28.73;;;11.10;;
51686;SDS011;37774;52.192;4.584;2023-03-01T01:51:58;29.23;;;11.15;;
51686;SDS011;37774;52.192;4.584;2023-03-01T01:54:34;22.00;;;8.27;;
51686;SDS011;37774;52.192;4.584;2023-03-01T01:57:09;39.60;;;12.98;;
51686;SDS011;37774;52.192;4.584;2023-03-01T01:59:42;21.90;;;11.02;;
51686;SDS011;37774;52.192;4.584;2023-03-01T02:02:12;24.83;;;9.68;;
51686;SDS011;37774;52.192;4.584;2023-03-01T02:04:40;27.88;;;10.73;;
51686;SDS011;37774;52.192;4.584;2023-03-01T02:07:09;29.58;;;12.38;;
51686;SDS011;37774;52.192;4.584;2023-03-01T02:09:43;37.40;;;14.27;;
51686;SDS011;37774;52.192;4.584;2023-03-01T02:12:13;26.45;;;11.70;;
51686;SDS011;37774;52.192;4.584;2023-03-01T02:14:40;27.67;;;12.05;;
51686;SDS011;37774;52.192;4.584;2023-03-01T02:17:07;36.65;;;14.00;;
51686;SDS011;37774;52.192;4.584;2023-03-01T02:19:39;33.45;;;13.30;;
51686;SDS011;37774;52.192;4.584;2023-03-01T02:22:17;24.20;;;12.50;;
51686;SDS011;37774;52.192;4.584;2023-03-01T02:24:52;31.05;;;13.18;;
51686;SDS011;37774;52.192;4.584;2023-03-01T02:27:30;27.20;;;12.10;;
51686;SDS011;37774;52.192;4.584;2023-03-01T02:30:07;32.47;;;12.02;;
51686;SDS011;37774;52.192;4.584;2023-03-01T02:32:38;27.92;;;12.00;;
51686;SDS011;37774;52.192;4.584;2023-03-01T02:35:07;33.97;;;13.60;;
51686;SDS011;37774;52.192;4.584;2023-03-01T02:37:35;39.47;;;14.15;;
51686;SDS011;37774;52.192;4.584;2023-03-01T02:40:06;35.60;;;13.00;;
51686;SDS011;37774;52.192;4.584;2023-03-01T02:42:40;29.98;;;13.63;;
51686;SDS011;37774;52.192;4.584;2023-03-01T02:45:15;33.25;;;14.13;;
51686;SDS011;37774;52.192;4.584;2023-03-01T02:47:42;34.78;;;13.88;;
51686;SDS011;37774;52.192;4.584;2023-03-01T02:50:11;34.40;;;12.38;;
51686;SDS011;37774;52.192;4.584;2023-03-01T02:52:45;25.23;;;12.20;;
51686;SDS011;37774;52.192;4.584;2023-03-01T02:55:19;25.80;;;11.38;;
51686;SDS011;37774;52.192;4.584;2023-03-01T02:57:47;34.05;;;13.32;;
51686;SDS011;37774;52.192;4.584;2023-03-01T03:00:19;30.92;;;11.95;;
51686;SDS011;37774;52.192;4.584;2023-03-01T03:02:50;28.88;;;13.35;;
51686;SDS011;37774;52.192;4.584;2023-03-01T03:05:19;29.40;;;11.57;;
51686;SDS011;37774;52.192;4.584;2023-03-01T03:07:47;27.40;;;10.75;;
51686;SDS011;37774;52.192;4.584;2023-03-01T03:10:22;38.55;;;14.73;;
51686;SDS011;37774;52.192;4.584;2023-03-01T03:12:50;33.13;;;12.63;;
51686;SDS011;37774;52.192;4.584;2023-03-01T03:15:20;31.33;;;13.75;;
51686;SDS011;37774;52.192;4.584;2023-03-01T03:17:48;37.30;;;13.88;;
51686;SDS011;37774;52.192;4.584;2023-03-01T03:20:17;31.25;;;13.10;;
51686;SDS011;37774;52.192;4.584;2023-03-01T03:22:46;40.10;;;14.70;;
51686;SDS011;37774;52.192;4.584;2023-03-01T03:25:15;29.05;;;13.88;;
51686;SDS011;37774;52.192;4.584;2023-03-01T03:27:43;31.55;;;13.45;;
51686;SDS011;37774;52.192;4.584;2023-03-01T03:30:12;29.45;;;12.75;;
51686;SDS011;37774;52.192;4.584;2023-03-01T03:32:44;43.90;;;13.90;;
51686;SDS011;37774;52.192;4.584;2023-03-01T03:35:18;34.25;;;13.43;;
51686;SDS011;37774;52.192;4.584;2023-03-01T03:37:46;36.80;;;13.00;;
51686;SDS011;37774;52.192;4.584;2023-03-01T03:40:28;35.03;;;12.50;;
51686;SDS011;37774;52.192;4.584;2023-03-01T03:42:56;51.90;;;11.93;;
51686;SDS011;37774;52.192;4.584;2023-03-01T03:45:23;37.92;;;12.95;;
51686;SDS011;37774;52.192;4.584;2023-03-01T03:47:51;29.33;;;11.82;;
51686;SDS011;37774;52.192;4.584;2023-03-01T03:50:18;47.20;;;15.65;;
51686;SDS011;37774;52.192;4.584;2023-03-01T03:52:46;51.60;;;13.50;;
51686;SDS011;37774;52.192;4.584;2023-03-01T03:55:13;34.60;;;13.60;;
51686;SDS011;37774;52.192;4.584;2023-03-01T03:57:45;43.88;;;14.70;;
51686;SDS011;37774;52.192;4.584;2023-03-01T04:00:17;59.80;;;12.63;;
51686;SDS011;37774;52.192;4.584;2023-03-01T04:02:45;77.80;;;14.00;;
51686;SDS011;37774;52.192;4.584;2023-03-01T04:05:15;35.30;;;12.38;;
51686;SDS011;37774;52.192;4.584;2023-03-01T04:07:44;32.80;;;10.00;;
51686;SDS011;37774;52.192;4.584;2023-03-01T04:10:11;23.63;;;8.73;;
51686;SDS011;37774;52.192;4.584;2023-03-01T04:12:39;25.05;;;9.85;;
51686;SDS011;37774;52.192;4.584;2023-03-01T04:15:08;21.27;;;10.32;;
51686;SDS011;37774;52.192;4.584;2023-03-01T04:17:39;22.58;;;9.52;;
51686;SDS011;37774;52.192;4.584;2023-03-01T04:20:07;20.13;;;8.35;;
51686;SDS011;37774;52.192;4.584;2023-03-01T04:22:39;28.55;;;8.30;;
51686;SDS011;37774;52.192;4.584;2023-03-01T04:25:07;27.10;;;8.30;;
51686;SDS011;37774;52.192;4.584;2023-03-01T04:27:39;23.15;;;9.25;;
51686;SDS011;37774;52.192;4.584;2023-03-01T04:30:07;22.40;;;10.55;;
51686;SDS011;37774;52.192;4.584;2023-03-01T04:32:35;39.72;;;10.82;;
51686;SDS011;37774;52.192;4.584;2023-03-01T04:35:02;24.33;;;10.70;;
51686;SDS011;37774;52.192;4.584;2023-03-01T04:37:29;18.38;;;8.55;;
51686;SDS011;37774;52.192;4.584;2023-03-01T04:39:57;25.55;;;10.43;;
51686;SDS011;37774;52.192;4.584;2023-03-01T04:42:24;23.55;;;10.13;;
51686;SDS011;37774;52.192;4.584;2023-03-01T04:44:51;23.30;;;10.50;;
51686;SDS011;37774;52.192;4.584;2023-03-01T04:47:18;25.75;;;11.25;;
51686;SDS011;37774;52.192;4.584;2023-03-01T04:49:45;36.42;;;10.63;;
51686;SDS011;37774;52.192;4.584;2023-03-01T04:52:12;53.10;;;9.00;;
51686;SDS011;37774;52.192;4.584;2023-03-01T04:54:39;17.30;;;8.82;;
51686;SDS011;37774;52.192;4.584;2023-03-01T04:57:07;30.92;;;11.05;;
51686;SDS011;37774;52.192;4.584;2023-03-01T04:59:34;22.50;;;9.55;;
51686;SDS011;37774;52.192;4.584;2023-03-01T05:02:01;23.65;;;9.55;;
51686;SDS011;37774;52.192;4.584;2023-03-01T05:04:29;22.77;;;10.43;;
51686;SDS011;37774;52.192;4.584;2023-03-01T05:06:57;23.45;;;11.35;;
51686;SDS011;37774;52.192;4.584;2023-03-01T05:09:24;39.22;;;9.57;;
51686;SDS011;37774;52.192;4.584;2023-03-01T05:11:51;18.95;;;8.77;;
51686;SDS011;37774;52.192;4.584;2023-03-01T05:14:19;43.80;;;9.02;;
51686;SDS011;37774;52.192;4.584;2023-03-01T05:16:48;17.83;;;7.78;;
51686;SDS011;37774;52.192;4.584;2023-03-01T05:19:15;29.52;;;9.60;;
51686;SDS011;37774;52.192;4.584;2023-03-01T05:21:48;57.08;;;8.90;;
51686;SDS011;37774;52.192;4.584;2023-03-01T05:24:30;26.65;;;9.73;;
51686;SDS011;37774;52.192;4.584;2023-03-01T05:26:59;27.67;;;11.27;;
51686;SDS011;37774;52.192;4.584;2023-03-01T05:29:30;22.05;;;9.90;;
51686;SDS011;37774;52.192;4.584;2023-03-01T05:32:00;22.00;;;9.70;;
51686;SDS011;37774;52.192;4.584;2023-03-01T05:34:28;37.53;;;10.40;;
51686;SDS011;37774;52.192;4.584;2023-03-01T05:36:56;24.33;;;10.65;;
51686;SDS011;37774;52.192;4.584;2023-03-01T05:39:24;27.58;;;11.50;;
51686;SDS011;37774;52.192;4.584;2023-03-01T05:41:53;27.30;;;10.00;;
51686;SDS011;37774;52.192;4.584;2023-03-01T05:44:21;23.50;;;10.50;;
51686;SDS011;37774;52.192;4.584;2023-03-01T05:46:49;22.92;;;10.15;;
51686;SDS011;37774;52.192;4.584;2023-03-01T05:49:16;22.48;;;10.65;;
51686;SDS011;37774;52.192;4.584;2023-03-01T05:51:47;26.70;;;11.02;;
51686;SDS011;37774;52.192;4.584;2023-03-01T05:54:15;19.70;;;9.10;;
51686;SDS011;37774;52.192;4.584;2023-03-01T05:56:42;25.92;;;10.05;;
51686;SDS011;37774;52.192;4.584;2023-03-01T05:59:10;28.60;;;10.95;;
51686;SDS011;37774;52.192;4.584;2023-03-01T06:01:38;19.75;;;9.38;;
51686;SDS011;37774;52.192;4.584;2023-03-01T06:04:07;28.73;;;10.07;;
51686;SDS011;37774;52.192;4.584;2023-03-01T06:06:35;17.20;;;8.60;;
51686;SDS011;37774;52.192;4.584;2023-03-01T06:09:03;19.67;;;8.63;;
51686;SDS011;37774;52.192;4.584;2023-03-01T06:11:33;21.63;;;9.20;;
51686;SDS011;37774;52.192;4.584;2023-03-01T06:14:00;15.95;;;8.75;;
51686;SDS011;37774;52.192;4.584;2023-03-01T06:16:27;25.20;;;9.82;;
51686;SDS011;37774;52.192;4.584;2023-03-01T06:18:54;24.08;;;10.18;;
51686;SDS011;37774;52.192;4.584;2023-03-01T06:21:22;19.42;;;8.73;;
51686;SDS011;37774;52.192;4.584;2023-03-01T06:23:49;24.88;;;11.10;;
51686;SDS011;37774;52.192;4.584;2023-03-01T06:26:17;25.02;;;10.88;;
51686;SDS011;37774;52.192;4.584;2023-03-01T06:28:43;26.80;;;11.38;;
51686;SDS011;37774;52.192;4.584;2023-03-01T06:31:11;21.33;;;9.95;;
51686;SDS011;37774;52.192;4.584;2023-03-01T06:33:38;27.38;;;10.85;;
51686;SDS011;37774;52.192;4.584;2023-03-01T06:36:05;23.63;;;10.65;;
51686;SDS011;37774;52.192;4.584;2023-03-01T06:38:37;23.20;;;10.23;;
51686;SDS011;37774;52.192;4.584;2023-03-01T06:41:06;26.08;;;11.07;;
51686;SDS011;37774;52.192;4.584;2023-03-01T06:43:33;21.17;;;9.98;;
51686;SDS011;37774;52.192;4.584;2023-03-01T06:46:00;34.50;;;10.45;;
51686;SDS011;37774;52.192;4.584;2023-03-01T06:48:29;23.65;;;10.35;;
51686;SDS011;37774;52.192;4.584;2023-03-01T06:50:57;21.42;;;9.65;;
51686;SDS011;37774;52.192;4.584;2023-03-01T06:53:26;47.45;;;14.35;;
51686;SDS011;37774;52.192;4.584;2023-03-01T06:55:57;28.75;;;11.25;;
51686;SDS011;37774;52.192;4.584;2023-03-01T06:58:25;23.83;;;10.48;;
51686;SDS011;37774;52.192;4.584;2023-03-01T07:00:52;27.27;;;12.27;;
51686;SDS011;37774;52.192;4.584;2023-03-01T07:03:19;24.00;;;10.85;;
51686;SDS011;37774;52.192;4.584;2023-03-01T07:05:48;23.33;;;10.55;;
51686;SDS011;37774;52.192;4.584;2023-03-01T07:08:17;25.88;;;9.70;;
51686;SDS011;37774;52.192;4.584;2023-03-01T07:10:43;33.10;;;11.85;;
51686;SDS011;37774;52.192;4.584;2023-03-01T07:13:12;23.77;;;9.93;;
51686;SDS011;37774;52.192;4.584;2023-03-01T07:15:39;22.55;;;10.02;;
51686;SDS011;37774;52.192;4.584;2023-03-01T07:18:06;32.72;;;8.70;;
51686;SDS011;37774;52.192;4.584;2023-03-01T07:20:34;24.63;;;9.20;;
51686;SDS011;37774;52.192;4.584;2023-03-01T07:23:01;24.92;;;9.82;;
51686;SDS011;37774;52.192;4.584;2023-03-01T07:25:27;23.98;;;11.25;;
51686;SDS011;37774;52.192;4.584;2023-03-01T07:27:55;29.40;;;12.13;;
51686;SDS011;37774;52.192;4.584;2023-03-01T07:30:23;27.77;;;11.60;;
51686;SDS011;37774;52.192;4.584;2023-03-01T07:32:53;23.75;;;10.50;;
51686;SDS011;37774;52.192;4.584;2023-03-01T07:35:20;23.90;;;10.27;;
51686;SDS011;37774;52.192;4.584;2023-03-01T07:37:47;21.48;;;10.95;;
51686;SDS011;37774;52.192;4.584;2023-03-01T07:40:14;26.25;;;12.32;;
51686;SDS011;37774;52.192;4.584;2023-03-01T07:42:41;25.27;;;11.50;;
51686;SDS011;37774;52.192;4.584;2023-03-01T07:45:09;30.38;;;11.90;;
51686;SDS011;37774;52.192;4.584;2023-03-01T07:47:38;35.38;;;12.75;;
51686;SDS011;37774;52.192;4.584;2023-03-01T07:50:05;46.60;;;16.58;;
51686;SDS011;37774;52.192;4.584;2023-03-01T07:52:32;48.03;;;18.60;;
51686;SDS011;37774;52.192;4.584;2023-03-01T07:54:59;61.97;;;21.00;;
51686;SDS011;37774;52.192;4.584;2023-03-01T07:57:26;95.68;;;23.50;;
51686;SDS011;37774;52.192;4.584;2023-03-01T07:59:53;59.67;;;20.20;;
51686;SDS011;37774;52.192;4.584;2023-03-01T08:02:19;82.53;;;22.13;;
51686;SDS011;37774;52.192;4.584;2023-03-01T08:04:47;87.55;;;22.48;;
51686;SDS011;37774;52.192;4.584;2023-03-01T08:07:14;61.72;;;19.80;;
51686;SDS011;37774;52.192;4.584;2023-03-01T08:09:41;49.10;;;17.05;;
51686;SDS011;37774;52.192;4.584;2023-03-01T08:12:08;63.55;;;18.27;;
51686;SDS011;37774;52.192;4.584;2023-03-01T08:14:35;57.80;;;18.50;;
51686;SDS011;37774;52.192;4.584;2023-03-01T08:17:01;60.05;;;17.60;;
51686;SDS011;37774;52.192;4.584;2023-03-01T08:19:29;49.78;;;18.13;;
51686;SDS011;37774;52.192;4.584;2023-03-01T08:21:57;56.22;;;20.40;;
51686;SDS011;37774;52.192;4.584;2023-03-01T08:24:25;56.38;;;19.45;;
51686;SDS011;37774;52.192;4.584;2023-03-01T08:26:52;43.47;;;17.10;;
51686;SDS011;37774;52.192;4.584;2023-03-01T08:29:19;46.17;;;19.45;;
51686;SDS011;37774;52.192;4.584;2023-03-01T08:31:46;59.03;;;21.45;;
51686;SDS011;37774;52.192;4.584;2023-03-01T08:34:15;54.80;;;19.15;;
51686;SDS011;37774;52.192;4.584;2023-03-01T08:36:43;52.47;;;18.35;;
51686;SDS011;37774;52.192;4.584;2023-03-01T08:39:13;62.55;;;22.48;;
51686;SDS011;37774;52.192;4.584;2023-03-01T08:41:41;55.83;;;21.38;;
51686;SDS011;37774;52.192;4.584;2023-03-01T08:44:08;57.20;;;20.77;;
51686;SDS011;37774;52.192;4.584;2023-03-01T08:46:38;58.15;;;22.27;;
51686;SDS011;37774;52.192;4.584;2023-03-01T08:49:07;61.92;;;21.92;;
51686;SDS011;37774;52.192;4.584;2023-03-01T08:51:35;63.83;;;22.88;;
51686;SDS011;37774;52.192;4.584;2023-03-01T08:54:02;71.47;;;25.00;;
51686;SDS011;37774;52.192;4.584;2023-03-01T08:56:31;69.90;;;24.77;;
51686;SDS011;37774;52.192;4.584;2023-03-01T08:58:59;62.17;;;24.38;;
51686;SDS011;37774;52.192;4.584;2023-03-01T09:01:26;86.63;;;28.70;;
51686;SDS011;37774;52.192;4.584;2023-03-01T09:03:53;78.53;;;25.27;;
51686;SDS011;37774;52.192;4.584;2023-03-01T09:06:20;70.53;;;25.05;;
51686;SDS011;37774;52.192;4.584;2023-03-01T09:08:47;87.50;;;26.92;;
51686;SDS011;37774;52.192;4.584;2023-03-01T09:11:17;82.97;;;25.50;;
51686;SDS011;37774;52.192;4.584;2023-03-01T09:13:47;84.03;;;31.05;;
51686;SDS011;37774;52.192;4.584;2023-03-01T09:16:16;86.07;;;28.50;;
51686;SDS011;37774;52.192;4.584;2023-03-01T09:18:44;72.97;;;25.60;;
51686;SDS011;37774;52.192;4.584;2023-03-01T09:21:12;71.53;;;26.05;;
51686;SDS011;37774;52.192;4.584;2023-03-01T09:23:40;70.93;;;27.15;;
51686;SDS011;37774;52.192;4.584;2023-03-01T09:26:09;85.40;;;29.02;;
51686;SDS011;37774;52.192;4.584;2023-03-01T09:28:37;68.75;;;24.05;;
51686;SDS011;37774;52.192;4.584;2023-03-01T09:31:07;74.88;;;24.20;;
51686;SDS011;37774;52.192;4.584;2023-03-01T09:33:34;66.25;;;22.20;;
51686;SDS011;37774;52.192;4.584;2023-03-01T09:36:02;64.15;;;21.80;;
51686;SDS011;37774;52.192;4.584;2023-03-01T09:38:30;58.90;;;21.58;;
51686;SDS011;37774;52.192;4.584;2023-03-01T09:40:57;65.28;;;22.85;;
51686;SDS011;37774;52.192;4.584;2023-03-01T09:43:26;61.25;;;23.50;;
51686;SDS011;37774;52.192;4.584;2023-03-01T09:46:00;75.68;;;19.70;;
51686;SDS011;37774;52.192;4.584;2023-03-01T09:48:33;56.47;;;18.05;;
51686;SDS011;37774;52.192;4.584;2023-03-01T09:51:09;54.67;;;20.33;;
51686;SDS011;37774;52.192;4.584;2023-03-01T09:53:40;57.10;;;21.42;;
51686;SDS011;37774;52.192;4.584;2023-03-01T09:56:11;64.05;;;24.48;;
51686;SDS011;37774;52.192;4.584;2023-03-01T09:58:47;64.32;;;23.17;;
51686;SDS011;37774;52.192;4.584;2023-03-01T10:01:27;68.03;;;24.08;;
51686;SDS011;37774;52.192;4.584;2023-03-01T10:04:24;55.60;;;21.75;;
51686;SDS011;37774;52.192;4.584;2023-03-01T10:06:58;64.13;;;22.25;;
51686;SDS011;37774;52.192;4.584;2023-03-01T10:09:34;68.28;;;24.30;;
51686;SDS011;37774;52.192;4.584;2023-03-01T10:12:04;67.78;;;23.52;;
51686;SDS011;37774;52.192;4.584;2023-03-01T10:14:36;58.65;;;22.75;;
51686;SDS011;37774;52.192;4.584;2023-03-01T10:17:08;55.78;;;21.52;;
51686;SDS011;37774;52.192;4.584;2023-03-01T10:19:44;66.90;;;25.58;;
51686;SDS011;37774;52.192;4.584;2023-03-01T10:22:13;74.70;;;25.05;;
51686;SDS011;37774;52.192;4.584;2023-03-01T10:24:42;61.78;;;23.80;;
51686;SDS011;37774;52.192;4.584;2023-03-01T10:27:13;70.50;;;24.65;;
51686;SDS011;37774;52.192;4.584;2023-03-01T10:29:48;66.45;;;21.83;;
51686;SDS011;37774;52.192;4.584;2023-03-01T10:32:25;59.47;;;22.38;;
51686;SDS011;37774;52.192;4.584;2023-03-01T10:34:54;39.92;;;17.83;;
51686;SDS011;37774;52.192;4.584;2023-03-01T10:37:22;64.35;;;24.33;;
51686;SDS011;37774;52.192;4.584;2023-03-01T10:39:54;62.15;;;23.65;;
51686;SDS011;37774;52.192;4.584;2023-03-01T10:42:26;51.47;;;22.25;;
51686;SDS011;37774;52.192;4.584;2023-03-01T10:44:55;55.47;;;22.95;;
51686;SDS011;37774;52.192;4.584;2023-03-01T10:47:23;69.35;;;24.17;;
51686;SDS011;37774;52.192;4.584;2023-03-01T10:49:57;63.83;;;22.35;;
51686;SDS011;37774;52.192;4.584;2023-03-01T10:52:27;49.80;;;20.35;;
51686;SDS011;37774;52.192;4.584;2023-03-01T10:54:57;61.42;;;21.73;;
51686;SDS011;37774;52.192;4.584;2023-03-01T10:57:36;52.90;;;21.33;;
51686;SDS011;37774;52.192;4.584;2023-03-01T11:03:08;45.35;;;20.52;;
51686;SDS011;37774;52.192;4.584;2023-03-01T11:05:49;71.22;;;22.15;;
51686;SDS011;37774;52.192;4.584;2023-03-01T11:08:29;60.10;;;22.38;;
51686;SDS011;37774;52.192;4.584;2023-03-01T11:11:05;55.55;;;21.92;;
51686;SDS011;37774;52.192;4.584;2023-03-01T11:13:54;77.38;;;23.60;;
51686;SDS011;37774;52.192;4.584;2023-03-01T11:16:24;60.33;;;23.05;;
51686;SDS011;37774;52.192;4.584;2023-03-01T11:18:56;61.33;;;21.27;;
51686;SDS011;37774;52.192;4.584;2023-03-01T11:21:26;60.08;;;21.77;;
51686;SDS011;37774;52.192;4.584;2023-03-01T11:23:56;52.70;;;20.83;;
51686;SDS011;37774;52.192;4.584;2023-03-01T11:26:26;54.85;;;21.33;;
51686;SDS011;37774;52.192;4.584;2023-03-01T11:28:56;42.92;;;16.75;;
51686;SDS011;37774;52.192;4.584;2023-03-01T11:31:27;35.90;;;14.48;;
51686;SDS011;37774;52.192;4.584;2023-03-01T11:33:56;23.67;;;10.68;;
51686;SDS011;37774;52.192;4.584;2023-03-01T11:36:34;26.55;;;10.57;;
51686;SDS011;37774;52.192;4.584;2023-03-01T11:39:13;19.48;;;9.13;;
51686;SDS011;37774;52.192;4.584;2023-03-01T11:41:48;16.40;;;8.50;;
51686;SDS011;37774;52.192;4.584;2023-03-01T11:44:28;18.77;;;9.20;;
51686;SDS011;37774;52.192;4.584;2023-03-01T11:47:17;21.23;;;9.77;;
51686;SDS011;37774;52.192;4.584;2023-03-01T11:50:06;19.42;;;8.75;;
51686;SDS011;37774;52.192;4.584;2023-03-01T11:52:46;28.92;;;10.75;;
51686;SDS011;37774;52.192;4.584;2023-03-01T11:55:24;24.17;;;10.38;;
51686;SDS011;37774;52.192;4.584;2023-03-01T11:58:08;24.40;;;10.30;;
51686;SDS011;37774;52.192;4.584;2023-03-01T12:00:48;19.10;;;9.25;;
51686;SDS011;37774;52.192;4.584;2023-03-01T12:03:28;24.20;;;10.07;;
51686;SDS011;37774;52.192;4.584;2023-03-01T12:08:58;21.60;;;9.75;;
51686;SDS011;37774;52.192;4.584;2023-03-01T12:11:39;24.38;;;9.60;;
51686;SDS011;37774;52.192;4.584;2023-03-01T12:14:22;20.38;;;9.65;;
51686;SDS011;37774;52.192;4.584;2023-03-01T12:17:11;21.30;;;10.68;;
51686;SDS011;37774;52.192;4.584;2023-03-01T12:19:51;20.30;;;8.38;;
51686;SDS011;37774;52.192;4.584;2023-03-01T12:22:35;23.67;;;10.80;;
51686;SDS011;37774;52.192;4.584;2023-03-01T12:25:17;31.70;;;10.02;;
51686;SDS011;37774;52.192;4.584;2023-03-01T12:30:49;20.85;;;8.15;;
51686;SDS011;37774;52.192;4.584;2023-03-01T12:36:09;16.17;;;8.18;;
51686;SDS011;37774;52.192;4.584;2023-03-01T12:38:56;19.98;;;9.40;;
51686;SDS011;37774;52.192;4.584;2023-03-01T12:41:40;22.75;;;8.77;;
51686;SDS011;37774;52.192;4.584;2023-03-01T12:47:07;24.15;;;7.55;;
51686;SDS011;37774;52.192;4.584;2023-03-01T12:49:47;19.13;;;9.07;;
51686;SDS011;37774;52.192;4.584;2023-03-01T12:52:20;19.33;;;8.07;;
51686;SDS011;37774;52.192;4.584;2023-03-01T12:54:55;14.93;;;7.00;;
51686;SDS011;37774;52.192;4.584;2023-03-01T12:57:29;19.33;;;9.43;;
51686;SDS011;37774;52.192;4.584;2023-03-01T13:00:06;21.70;;;8.85;;
51686;SDS011;37774;52.192;4.584;2023-03-01T13:02:47;23.80;;;9.30;;
51686;SDS011;37774;52.192;4.584;2023-03-01T13:05:26;19.83;;;8.32;;
51686;SDS011;37774;52.192;4.584;2023-03-01T13:08:05;20.05;;;9.23;;
51686;SDS011;37774;52.192;4.584;2023-03-01T13:10:39;16.73;;;7.15;;
51686;SDS011;37774;52.192;4.584;2023-03-01T13:13:18;19.40;;;7.70;;
51686;SDS011;37774;52.192;4.584;2023-03-01T13:15:47;18.55;;;8.68;;
51686;SDS011;37774;52.192;4.584;2023-03-01T13:18:29;19.20;;;7.85;;
51686;SDS011;37774;52.192;4.584;2023-03-01T13:20:58;19.25;;;8.15;;
51686;SDS011;37774;52.192;4.584;2023-03-01T13:23:27;15.25;;;6.88;;
51686;SDS011;37774;52.192;4.584;2023-03-01T13:26:04;18.52;;;7.22;;
51686;SDS011;37774;52.192;4.584;2023-03-01T13:28:47;17.45;;;6.43;;
51686;SDS011;37774;52.192;4.584;2023-03-01T13:37:27;21.77;;;5.93;;
51686;SDS011;37774;52.192;4.584;2023-03-01T13:45:59;17.88;;;7.70;;
51686;SDS011;37774;52.192;4.584;2023-03-01T13:48:28;16.88;;;8.23;;
51686;SDS011;37774;52.192;4.584;2023-03-01T13:50:58;18.75;;;7.28;;
51686;SDS011;37774;52.192;4.584;2023-03-01T13:53:29;13.90;;;6.65;;
51686;SDS011;37774;52.192;4.584;2023-03-01T13:55:58;15.02;;;7.05;;
51686;SDS011;37774;52.192;4.584;2023-03-01T13:58:28;17.98;;;7.60;;
51686;SDS011;37774;52.192;4.584;2023-03-01T14:00:59;12.82;;;5.97;;
51686;SDS011;37774;52.192;4.584;2023-03-01T14:03:34;14.13;;;6.72;;
51686;SDS011;37774;52.192;4.584;2023-03-01T14:06:08;20.98;;;7.28;;
51686;SDS011;37774;52.192;4.584;2023-03-01T14:08:40;16.98;;;6.15;;
51686;SDS011;37774;52.192;4.584;2023-03-01T14:11:21;15.43;;;6.05;;
51686;SDS011;37774;52.192;4.584;2023-03-01T14:14:04;11.93;;;6.30;;
51686;SDS011;37774;52.192;4.584;2023-03-01T14:16:44;16.10;;;5.55;;
51686;SDS011;37774;52.192;4.584;2023-03-01T14:19:19;15.82;;;5.78;;
51686;SDS011;37774;52.192;4.584;2023-03-01T14:21:58;11.52;;;6.15;;
51686;SDS011;37774;52.192;4.584;2023-03-01T14:24:29;8.32;;;3.92;;
51686;SDS011;37774;52.192;4.584;2023-03-01T14:26:58;12.63;;;5.43;;
51686;SDS011;37774;52.192;4.584;2023-03-01T14:29:27;12.02;;;5.55;;
51686;SDS011;37774;52.192;4.584;2023-03-01T14:32:09;14.10;;;5.95;;
51686;SDS011;37774;52.192;4.584;2023-03-01T14:34:39;13.00;;;5.57;;
51686;SDS011;37774;52.192;4.584;2023-03-01T14:37:11;16.42;;;6.18;;
51686;SDS011;37774;52.192;4.584;2023-03-01T14:39:44;15.40;;;5.80;;
51686;SDS011;37774;52.192;4.584;2023-03-01T14:42:11;16.40;;;6.25;;
51686;SDS011;37774;52.192;4.584;2023-03-01T14:44:40;11.02;;;5.07;;
51686;SDS011;37774;52.192;4.584;2023-03-01T14:47:11;16.60;;;6.55;;
51686;SDS011;37774;52.192;4.584;2023-03-01T14:49:40;11.18;;;5.82;;
51686;SDS011;37774;52.192;4.584;2023-03-01T14:52:15;14.52;;;5.60;;
51686;SDS011;37774;52.192;4.584;2023-03-01T14:54:46;15.75;;;6.13;;
51686;SDS011;37774;52.192;4.584;2023-03-01T14:57:15;14.02;;;4.88;;
51686;SDS011;37774;52.192;4.584;2023-03-01T14:59:43;29.23;;;6.78;;
51686;SDS011;37774;52.192;4.584;2023-03-01T15:02:15;9.32;;;5.28;;
51686;SDS011;37774;52.192;4.584;2023-03-01T15:04:48;16.85;;;5.03;;
51686;SDS011;37774;52.192;4.584;2023-03-01T15:07:17;10.05;;;4.60;;
51686;SDS011;37774;52.192;4.584;2023-03-01T15:09:45;8.63;;;4.38;;
51686;SDS011;37774;52.192;4.584;2023-03-01T15:12:34;13.65;;;5.75;;